Jump to content

Snow !


Tempus Fugit
 Share

Recommended Posts

  • Replies 963
  • Created
  • Last Reply

Top Posters In This Topic

The Airport is closed until 10:00, snow clearing operations are going well, next update at 09:30. 

 

Passengers are advised to check with their airline before travelling to the airport 

 

We are reasonably confident of 10:00 Airport opening, subject to no further significant snow falls.

Link to comment
Share on other sites

The Airport is closed until 10:00, snow clearing operations are going well, next update at 09:30. 

 

Passengers are advised to check with their airline before travelling to the airport 

 

We are reasonably confident of 10:00 Airport opening, subject to no further significant snow falls.

Link to comment
Share on other sites

well your a happy sod arent you,

 

well dont read them if you feel there tiresome, ill-informed, i think not, lack of knowledge once again i dont think so.

 

You sound like you work in the isle of man met, not fooking idea.

 

causeing alarm, i would not say so, you only get alamed if you are thet type of person that panics,

 

go bol ones head.

 

let it snow let it snow

 

I don't happen to be a met person but it's difficult to encounter many threads without meeting your 'wisdom'. It must be a burden for you, bumbling around as the font of all knowledge - why don't you cool your hot head by giving it a rub in the snow.

Link to comment
Share on other sites

3FM Update: Ronaldsway Airport back open at 10:15

 

Roads: B10 Brandywell Road: 16 Dec 2010 to 17 Dec 2010 - The B10 Brandywell Road will be closed, due to ice... http://bit.ly/icAIfg

 

 

Adverse Weather update 17th December http://iombusandrail.info/weather.html

Link to comment
Share on other sites

Anyone know why there are no buses from Port Erin?

 

I drove from a snowy road in Port Erin to Castletown this morning to take someone to catch the bus in the Square. The main roads were ok all the way to Castletown. In fact the worse bit was from Red Gap to the Square!

 

 

Did you go through Ballabeg and Colby? that is where the no 1 usually goes through and it was pretty bad, did nt even look like it had been gritted tbh.

Link to comment
Share on other sites

The main Colby road from The Level to Port Erin doesn't seem too bad. I had a walk along it and then up over St Mary's Road and along the shore back to The Level this morning. All those roads were passable, although I did watch a massive Audi 4x4 sliding sideways down a steep estate road on the way - ridiculous vehicle.

Link to comment
Share on other sites

The Airport is closed until 10:00, snow clearing operations are going well,
Just had a look at this mornings met at Ronaldsway

 

 

EGNS 171150Z 31014KT 9999 5000E VCSH SCT020CB 02/M03 Q0998 RESHSN NOSIG=

EGNS 171150Z 30010KT 240V340 9999 5000E SCT020CB 02/M02 Q0998 RESHSN NOSIG=

EGNS 171120Z 33009KT 9999 6000W VCSH SCT020CB 02/M06 Q0998 TEMPO 2000 SHSN=

EGNS 171050Z 34010KT 290V020 9999 FEW020CB SCT025 02/M07 Q0998 NOSIG=

EGNS 171020Z 34010KT 300V020 9999 SCT025TCU SCT045 02/M08 Q0999 NOSIG=

EGNS 170950Z 34009KT 290V020 9999 FEW025TCU 02/M06 Q0999 NOSIG=

EGNS 170920Z 33007KT 290V010 9999 FEW025TCU 02/M07 Q0999 NOSIG=

EGNS 170850Z 34009KT 300V020 9999 FEW025 02/M08 Q0999 NOSIG=

EGNS 170820Z 33012KT 280V020 9999 FEW020 02/M04 Q0999 NOSIG=

EGNS 170750Z 33012KT 280V020 9999 FEW018 02/01 Q0999 NO SIG=

EGNS 170720Z 33014G24KT 290V020 9999 FEW018 02/02 Q1000 RESHSN NOSIG=

EGNS 170650Z 33016KT 280V010 9999 FEW018 SCT040 02/01 Q1000 RESN=

EGNS 170620Z AUTO 33011KT 280V020 //// // BKN037/// 02/01 Q1000=

EGNS 170550Z 32012KT 280V360 5000 -SHGS SCT025 01/M03 Q1000=

 

Doesn't it normally say SNOCLO in that lot somewhere if it's shut? All I can see is recent snow showers....and a snow pellet shower at 0550

Edited by ballaughbiker
Link to comment
Share on other sites

Join the conversation

You can post now and register later. If you have an account, sign in now to post with your account.

Guest
Reply to this topic...

×   Pasted as rich text.   Paste as plain text instead

  Only 75 emoji are allowed.

×   Your link has been automatically embedded.   Display as a link instead

×   Your previous content has been restored.   Clear editor

×   You cannot paste images directly. Upload or insert images from URL.

Loading...
 Share

  • Recently Browsing   0 members

    • No registered users viewing this page.

×
×
  • Create New...